Latest Weather Observations for Gannett Cay

IDQ60801

Issued at 3:35 am EST Friday 22 August 2014 (issued every 30 minutes, with the page automatically refreshed every 10 minutes)

About weather observations | Map of weather stations | Latest weather observations for QLD | Other Formats
Station Details ID: 200831 Name: GANNET CAY Lat: -21.98 Lon: 152.47 Height: 2.3 m
Data from the previous 72 hours. | See also: Recent months for locations in Queensland
Date/Time
EST
Temp
°C
App
Temp
°C
Dew
Point
Rel
Hum
%
Delta-T
°C
Wind Press
QNH
hPa
Press
MSL
hPa
Rain
since 9 am
mm
Dir
 
Spd
km/h
Gust
km/h
Spd
kts
Gust
kts
22/03:30am 20.0 - - - - SSE 20 24 11 13 1017.2 - -
22/03:26am 20.1 - - - - SSE 20 20 11 11 1017.3 1017.4 -
22/02:30am 20.0 - - - - SSE 22 24 12 13 1017.6 - -
22/02:26am 19.7 - - - - SSE 22 - 12 - - 1017.7 -
22/02:00am 19.6 - - - - SSE 26 30 14 16 1017.7 - -
22/01:30am 19.9 - - - - SSE 28 32 15 17 1018.1 - -
22/01:26am 19.9 - - - - SSE 28 - 15 - - 1018.2 -
22/01:00am 20.2 - - - - SSE 22 24 12 13 1018.4 - -
22/12:30am 20.0 - - - - SSE 19 22 10 12 1018.5 - -
22/12:26am 19.8 - - - - SSE 19 - 10 - - 1018.6 -
22/12:00am 20.1 - - - - SSE 19 22 10 12 1018.6 - -
 
Date/Time
EST
Temp
°C
App
Temp
°C
Dew
Point
Rel
Hum
%
Delta-T
°C
Wind Press
QNH
hPa
Press
MSL
hPa
Rain
since 9 am
mm
Dir
 
Spd
km/h
Gust
km/h
Spd
kts
Gust
kts
21/11:30pm 20.1 - - - - S 17 19 9 10 1018.7 - -
21/11:26pm 19.9 - - - - S 17 - 9 - - 1018.8 -
21/11:00pm 19.9 - - - - S 17 17 9 9 1018.9 - -
21/10:30pm 19.9 - - - - S 19 20 10 11 1018.9 - -
21/10:26pm 19.8 - - - - S 19 - 10 - - 1019.0 -
21/10:00pm 19.1 - - - - SSE 20 24 11 13 1019.0 - -
21/09:30pm 19.5 - - - - SE 19 24 10 13 1019.1 - -
21/09:26pm 19.6 - - - - ESE 20 - 11 - - 1019.2 -
21/09:00pm 20.2 - - - - SSE 20 22 11 12 1018.9 - -
21/08:30pm 20.2 - - - - S 20 24 11 13 1018.7 - -
21/08:26pm 20.2 - - - - S 20 - 11 - - 1018.8 -
21/08:00pm 20.2 - - - - S 19 26 10 14 1018.5 - -
21/07:30pm 20.6 - - - - S 20 24 11 13 1018.2 - -
21/07:26pm 20.5 - - - - S 22 - 12 - - 1018.3 -
21/07:00pm 20.4 - - - - S 20 24 11 13 1018.0 - -
21/06:30pm 20.4 - - - - S 19 22 10 12 1017.6 - -
21/06:26pm 20.5 - - - - S 19 - 10 - - 1017.6 -
21/06:00pm 20.5 - - - - S 19 20 10 11 1017.3 - -
21/05:30pm 20.5 - - - - S 20 22 11 12 1017.0 - -
21/05:26pm 20.6 - - - - SSW 19 - 10 - - 1017.1 -
21/05:00pm 20.6 - - - - SSW 19 22 10 12 1016.9 - -
21/04:30pm 20.6 - - - - SSW 20 24 11 13 1016.6 - -
21/04:26pm 20.4 - - - - SSW 20 - 11 - - 1016.6 -
21/04:00pm 20.6 - - - - SSW 17 20 9 11 1016.3 - -
21/03:30pm 20.6 - - - - SSW 20 22 11 12 1016.0 - -
21/03:26pm 21.0 - - - - SSW 19 20 10 11 1016.0 1016.1 -
21/03:00pm 20.6 - - - - SSW 17 19 9 10 1016.0 - -
21/02:30pm 20.6 - - - - SSW 19 20 10 11 1016.2 - -
21/02:26pm 20.6 - - - - SSW 19 - 10 - - 1016.4 -
21/02:00pm 20.5 - - - - SSW 19 20 10 11 1016.4 - -
21/01:30pm 20.3 - - - - S 17 20 9 11 1016.7 - -
21/01:26pm 20.4 - - - - S 17 - 9 - - 1016.9 -
21/01:00pm 20.3 - - - - SSW 19 22 10 12 1017.1 - -
21/12:30pm 20.3 - - - - S 20 24 11 13 1017.5 - -
21/12:26pm 20.2 - - - - S 20 - 11 - - 1017.7 -
21/12:00pm 20.2 - - - - S 20 24 11 13 1017.9 - -
21/11:30am 20.5 - - - - S 20 22 11 12 1018.4 - -
21/11:26am 20.5 - - - - S 20 - 11 - - 1018.5 -
21/11:00am 20.4 - - - - S 20 24 11 13 1018.6 - -
21/10:30am 20.6 - - - - S 19 22 10 12 1018.9 - -
21/10:26am 20.6 - - - - S 19 - 10 - - 1019.0 -
21/10:00am 20.6 - - - - S 20 22 11 12 1019.1 - -
21/09:30am 20.5 - - - - S 19 20 10 11 1019.4 - -
21/09:26am 20.5 - - - - S 19 - 10 - - 1019.5 -
21/09:00am 20.6 - - - - S 17 20 9 11 1019.3 - -
21/08:30am 20.5 - - - - S 20 24 11 13 1019.0 - -
21/08:26am 20.6 - - - - S 22 - 12 - - 1019.0 -
21/08:00am 20.7 - - - - S 22 26 12 14 1018.7 - -
21/07:30am 20.7 - - - - S 20 24 11 13 1018.2 - -
21/07:26am 20.6 - - - - S 20 - 11 - - 1018.4 -
21/07:00am 20.5 - - - - S 19 22 10 12 1018.0 - -
21/06:30am 20.5 - - - - S 19 24 10 13 1017.8 - -
21/06:26am 20.5 - - - - S 19 - 10 - - 1017.8 -
21/06:00am 20.6 - - - - S 19 20 10 11 1017.5 - -
21/05:30am 20.5 - - - - S 17 20 9 11 1017.1 - -
21/05:26am 20.5 - - - - S 15 - 8 - - 1017.2 -
21/05:00am 20.4 - - - - SSE 15 20 8 11 1016.8 - -
21/04:30am 20.4 - - - - S 13 19 7 10 1016.5 - -
21/04:26am 20.5 - - - - S 13 - 7 - - 1016.7 -
21/04:00am 20.4 - - - - SSE 13 15 7 8 1016.7 - -
21/03:30am 20.5 - - - - SSE 13 15 7 8 1016.8 - -
21/03:26am 20.4 - - - - SSE 13 - 7 - - 1016.9 -
21/02:30am 20.5 - - - - ESE 9 13 5 7 1017.2 - -
21/02:26am 20.5 - - - - ESE 9 - 5 - - 1017.3 -
21/02:00am 20.5 - - - - E 13 17 7 9 1017.2 - -
21/01:30am 20.6 - - - - E 13 17 7 9 1017.4 - -
21/01:26am 20.6 - - - - E 15 - 8 - - 1017.5 -
21/01:00am 20.7 - - - - E 15 19 8 10 1017.8 - -
21/12:30am 20.6 - - - - E 13 17 7 9 1018.2 - -
21/12:26am 20.7 - - - - E 13 - 7 - - 1018.5 -
21/12:00am 20.6 - - - - E 17 22 9 12 1018.4 - -
 
Date/Time
EST
Temp
°C
App
Temp
°C
Dew
Point
Rel
Hum
%
Delta-T
°C
Wind Press
QNH
hPa
Press
MSL
hPa
Rain
since 9 am
mm
Dir
 
Spd
km/h
Gust
km/h
Spd
kts
Gust
kts
20/11:30pm 20.5 - - - - E 19 22 10 12 1018.6 - -
20/11:26pm 20.6 - - - - E 19 - 10 - - 1018.8 -
20/11:00pm 20.6 - - - - ESE 19 22 10 12 1019.0 - -
20/10:30pm 20.5 - - - - ESE 20 24 11 13 1019.1 - -
20/10:26pm 20.5 - - - - ESE 20 - 11 - - 1019.2 -
20/10:00pm 20.6 - - - - ESE 20 24 11 13 1019.5 - -
20/09:30pm 20.4 - - - - ESE 20 24 11 13 1019.5 - -
20/09:26pm 20.5 - - - - ESE 20 - 11 - - 1019.7 -
20/09:00pm 20.4 - - - - SE 20 24 11 13 1019.5 - -
20/08:30pm 20.3 - - - - SE 20 26 11 14 1019.4 - -
20/08:26pm 20.3 - - - - SE 20 - 11 - - 1019.6 -
20/08:00pm 20.1 - - - - SE 19 24 10 13 1019.4 - -
20/07:30pm 20.1 - - - - SSE 19 24 10 13 1019.3 - -
20/07:26pm 20.0 - - - - SE 19 - 10 - - 1019.4 -
20/07:00pm 20.0 - - - - SSE 20 26 11 14 1019.1 - -
20/06:30pm 20.0 - - - - SSE 20 24 11 13 1018.8 - -
20/06:26pm 19.9 - - - - SSE 20 - 11 - - 1018.9 -
20/06:00pm 19.9 - - - - SSE 20 26 11 14 1018.2 - -
20/05:30pm 20.1 - - - - SSE 19 20 10 11 1018.0 - -
20/05:26pm 20.0 - - - - SSE 19 - 10 - - 1018.0 -
20/05:00pm 20.0 - - - - SSE 22 26 12 14 1017.6 - -
20/04:30pm 20.2 - - - - S 24 28 13 15 1016.8 - -
20/04:26pm 20.1 - - - - S 22 - 12 - - 1016.8 -
20/04:00pm 20.5 - - - - S 26 30 14 16 1016.5 - -
20/03:30pm 20.5 - - - - S 28 32 15 17 1016.0 - -
20/03:26pm 20.6 - - - - S 28 - 15 - - 1016.1 -
20/03:00pm 20.6 - - - - S 26 30 14 16 1016.1 - -
20/02:30pm 20.7 - - - - S 22 28 12 15 1015.9 - -
20/02:26pm 20.8 - - - - S 22 - 12 - - 1016.1 -
20/02:00pm 21.1 - - - - S 20 26 11 14 1016.2 - -
20/01:30pm 21.2 - - - - SSE 19 24 10 13 1016.2 - -
20/01:26pm 21.2 - - - - SSE 19 - 10 - - 1016.4 -
20/01:00pm 21.3 - - - - SSE 20 24 11 13 1016.6 - -
20/12:30pm 21.6 - - - - SSE 19 24 10 13 1017.1 - -
20/12:26pm 21.5 - - - - SSE 19 - 10 - - 1017.2 -
20/12:00pm 21.4 - - - - SSE 19 20 10 11 1017.3 - -
20/11:30am 21.1 - - - - SSE 20 26 11 14 1017.6 - -
20/11:26am 21.2 - - - - SSE 20 - 11 - - 1017.8 -
20/11:00am 21.5 - - - - SSE 19 28 10 15 1018.2 - -
20/10:30am 21.6 - - - - SSE 19 24 10 13 1018.5 - -
20/10:26am 21.5 - - - - SSE 20 - 11 - - 1018.7 -
20/10:00am 21.4 - - - - SSE 22 26 12 14 1018.4 - -
20/09:30am 21.3 - - - - SSE 20 26 11 14 1018.4 - -
20/09:26am 21.2 - - - - SSE 20 - 11 - - 1018.5 -
20/09:00am 21.1 - - - - SSE 24 30 13 16 1018.4 - -
20/08:30am 20.8 - - - - S 24 30 13 16 1018.1 - -
20/08:26am 20.9 - - - - SSE 24 - 13 - - 1018.1 -
20/08:00am 21.2 - - - - SSE 24 32 13 17 1017.9 - -
20/07:30am 20.8 - - - - S 26 33 14 18 1017.6 - -
20/07:26am 20.8 - - - - S 28 - 15 - - 1017.7 -
20/07:00am 20.8 - - - - S 28 32 15 17 1017.4 - -
20/06:30am 20.8 - - - - S 26 32 14 17 1017.4 - -
20/06:26am 20.8 - - - - S 26 - 14 - - 1017.4 -
20/06:00am 20.6 - - - - S 22 30 12 16 1017.3 - -
20/05:30am 20.8 - - - - S 24 32 13 17 1017.0 - -
20/05:26am 20.8 - - - - S 20 - 11 - - 1017.0 -
20/05:00am 20.8 - - - - SSE 22 30 12 16 1016.8 - -
20/04:30am 19.8 - - - - W 11 15 6 8 1016.8 - -
20/04:26am 19.7 - - - - W 11 - 6 - - 1016.9 -
20/04:00am 19.7 - - - - W 13 17 7 9 1016.7 - -
20/03:30am 19.6 - - - - WSW 13 17 7 9 1016.6 - -
20/03:26am 19.5 - - - - WSW 15 - 8 - - 1016.7 -
20/02:30am 19.7 - - - - SW 13 19 7 10 1016.8 - -
20/02:26am 19.6 - - - - SW 15 - 8 - - 1017.0 -
20/02:00am 19.8 - - - - SW 15 19 8 10 1016.9 - -
20/01:30am 19.8 - - - - SSW 17 22 9 12 1016.9 - -
20/01:26am 19.9 - - - - SSW 17 - 9 - - 1017.0 -
20/01:00am 19.8 - - - - SSW 19 24 10 13 1016.8 - -
20/12:30am 19.8 - - - - SW 17 20 9 11 1016.8 - -
20/12:26am 19.7 - - - - SW 19 - 10 - - 1016.9 -
20/12:00am 19.7 - - - - SW 17 20 9 11 1016.9 - -
 
Date/Time
EST
Temp
°C
App
Temp
°C
Dew
Point
Rel
Hum
%
Delta-T
°C
Wind Press
QNH
hPa
Press
MSL
hPa
Rain
since 9 am
mm
Dir
 
Spd
km/h
Gust
km/h
Spd
kts
Gust
kts
19/11:30pm 19.7 - - - - SW 15 17 8 9 1017.0 - -
19/11:26pm 19.6 - - - - SW 15 - 8 - - 1017.1 -
19/11:00pm 19.6 - - - - WSW 17 19 9 10 1017.0 - -
19/10:30pm 19.6 - - - - WSW 15 19 8 10 1017.1 - -
19/10:26pm 19.6 - - - - WSW 17 - 9 - - 1017.3 -
19/10:00pm 19.6 - - - - WSW 15 17 8 9 1017.2 - -
19/09:30pm 19.5 - - - - WSW 11 15 6 8 1017.1 - -
19/09:26pm 19.5 - - - - WSW 13 - 7 - - 1017.2 -
19/09:00pm 19.6 - - - - WSW 11 13 6 7 1017.3 - -
19/08:30pm 19.3 - - - - W 7 11 4 6 1017.1 - -
19/08:26pm 19.4 - - - - W 7 - 4 - - 1017.2 -
19/08:00pm 19.4 - - - - WSW 11 13 6 7 1017.0 - -
19/07:30pm 19.4 - - - - WSW 11 15 6 8 1016.6 - -
19/07:26pm 19.3 - - - - WSW 9 - 5 - - 1016.7 -
19/07:00pm 19.3 - - - - WSW 11 13 6 7 1016.3 - -
19/06:30pm 19.2 - - - - SW 15 17 8 9 1015.8 - -
19/06:26pm 19.2 - - - - SW 15 - 8 - - 1015.8 -
19/06:00pm 19.1 - - - - SW 15 20 8 11 1015.4 - -
19/05:30pm 19.3 - - - - SW 17 20 9 11 1015.2 - -
19/05:26pm 19.3 - - - - SW 15 - 8 - - 1015.2 -
19/05:00pm 19.4 - - - - SSW 17 19 9 10 1014.8 - -
19/04:30pm 19.4 - - - - SW 17 20 9 11 1014.7 - -
19/04:26pm 19.3 - - - - SSW 17 - 9 - - 1014.8 -
19/04:00pm 19.4 - - - - SSW 19 22 10 12 1014.7 - -
19/03:30pm 19.5 - - - - SSW 20 24 11 13 1014.5 - -
19/03:26pm 19.3 - - - - SSW 20 - 11 - - 1014.6 -
19/03:00pm 19.8 - - - - SSW 20 24 11 13 1014.5 - -
19/02:30pm 19.5 - - - - SSW 22 28 12 15 1014.5 - -
19/02:26pm 19.5 - - - - SSW 22 - 12 - - 1014.6 -
19/02:00pm 19.6 - - - - SSW 20 24 11 13 1014.6 - -
19/01:30pm 19.7 - - - - S 22 28 12 15 1014.8 - -
19/01:26pm 19.8 - - - - S 22 - 12 - - 1015.0 -
19/01:00pm 19.9 - - - - S 26 30 14 16 1015.2 - -
19/12:30pm 20.0 - - - - S 24 30 13 16 1015.6 - -
19/12:26pm 20.1 - - - - S 24 - 13 - - 1015.7 -
19/12:00pm 20.3 - - - - S 26 32 14 17 1015.9 - -
19/11:30am 20.7 - - - - S 22 35 12 19 1016.3 - -
19/11:26am 20.8 - - - - S 22 - 12 - - 1016.5 -
19/11:00am 21.0 - - - - S 19 22 10 12 1016.8 - -
19/10:30am 21.3 - - - - S 15 19 8 10 1017.1 - -
19/10:26am 21.2 - - - - SSW 15 - 8 - - 1017.3 -
19/10:00am 21.1 - - - - SSW 17 20 9 11 1017.4 - -
19/09:30am 20.9 - - - - SSW 19 20 10 11 1017.5 - -
19/09:26am 21.0 - - - - SSW 19 - 10 - - 1017.5 -
19/09:00am 20.9 - - - - SSW 20 26 11 14 1017.4 - -
19/08:30am 20.9 - - - - SW 24 28 13 15 1017.3 - -
19/08:26am 21.0 - - - - SW 22 - 12 - - 1017.3 -
19/08:00am 20.9 - - - - SW 24 28 13 15 1017.0 - -
19/07:30am 21.1 - - - - WSW 24 28 13 15 1016.9 - -
19/07:26am 21.0 - - - - WSW 20 - 11 - - 1017.0 -
19/07:00am 21.0 - - - - WSW 22 26 12 14 1016.6 - -
19/06:30am 21.0 - - - - WSW 26 30 14 16 1016.3 - -
19/06:26am 21.0 - - - - WSW 26 - 14 - - 1016.3 -
19/06:00am 20.9 - - - - WSW 24 28 13 15 1016.0 - -
19/05:30am 20.8 - - - - W 24 28 13 15 1015.7 - -
19/05:26am 20.8 - - - - W 22 - 12 - - 1015.7 -
19/05:00am 20.7 - - - - W 22 26 12 14 1015.5 - -
19/04:30am 20.6 - - - - W 20 24 11 13 1015.3 - -
19/04:26am 20.5 - - - - W 20 - 11 - - 1015.4 -
19/04:00am 20.3 - - - - WNW 19 24 10 13 1015.4 - -

Other Formats:

Comma delimited format used in spreadsheet applications
http://www.bom.gov.au/fwo/IDQ60801/IDQ60801.94379.axf

JavaScript Object Notation format (JSON) in row-major order
http://www.bom.gov.au/fwo/IDQ60801/IDQ60801.94379.json